sensor_id;sensor_type;location;lat;lon;timestamp;pressure;altitude;pressure_sealevel;temperature;humidity
77410;BME280;66481;51.332;22.804;2023-03-08T00:01:10;97743.69;;;3.28;67.13
77410;BME280;66481;51.332;22.804;2023-03-08T00:05:11;97761.16;;;3.27;67.93
77410;BME280;66481;51.332;22.804;2023-03-08T00:09:13;97759.59;;;3.25;68.20
77410;BME280;66481;51.332;22.804;2023-03-08T00:13:14;97759.59;;;3.25;68.44
77410;BME280;66481;51.332;22.804;2023-03-08T00:17:17;97752.81;;;3.33;67.90
77410;BME280;66481;51.332;22.804;2023-03-08T00:21:18;97757.00;;;3.36;68.17
77410;BME280;66481;51.332;22.804;2023-03-08T00:25:19;97744.06;;;3.34;68.34
77410;BME280;66481;51.332;22.804;2023-03-08T00:29:20;97748.91;;;3.28;69.54
77410;BME280;66481;51.332;22.804;2023-03-08T00:33:21;97750.22;;;3.22;70.00
77410;BME280;66481;51.332;22.804;2023-03-08T00:37:22;97739.75;;;3.33;70.53
77410;BME280;66481;51.332;22.804;2023-03-08T00:41:23;97742.00;;;3.27;72.40
77410;BME280;66481;51.332;22.804;2023-03-08T00:45:24;97735.56;;;3.19;73.19
77410;BME280;66481;51.332;22.804;2023-03-08T00:49:25;97743.03;;;3.13;71.97
77410;BME280;66481;51.332;22.804;2023-03-08T00:53:26;97739.34;;;3.04;73.04
77410;BME280;66481;51.332;22.804;2023-03-08T00:57:27;97738.03;;;2.98;73.50
77410;BME280;66481;51.332;22.804;2023-03-08T01:01:28;97740.97;;;2.94;76.11
77410;BME280;66481;51.332;22.804;2023-03-08T01:05:29;97731.91;;;2.75;77.90
77410;BME280;66481;51.332;22.804;2023-03-08T01:09:33;97734.66;;;2.50;80.22
77410;BME280;66481;51.332;22.804;2023-03-08T01:13:34;97743.13;;;2.40;81.83
77410;BME280;66481;51.332;22.804;2023-03-08T01:17:35;97741.66;;;2.25;82.41
77410;BME280;66481;51.332;22.804;2023-03-08T01:21:37;97734.19;;;2.32;82.52
77410;BME280;66481;51.332;22.804;2023-03-08T01:25:38;97742.56;;;2.24;83.61
77410;BME280;66481;51.332;22.804;2023-03-08T01:29:39;97730.06;;;2.16;83.95
77410;BME280;66481;51.332;22.804;2023-03-08T01:33:41;97726.50;;;2.30;83.25
77410;BME280;66481;51.332;22.804;2023-03-08T01:37:42;97726.63;;;2.16;84.04
77410;BME280;66481;51.332;22.804;2023-03-08T01:41:43;97726.03;;;2.12;84.84
77410;BME280;66481;51.332;22.804;2023-03-08T01:46:08;97720.59;;;2.15;84.19
77410;BME280;66481;51.332;22.804;2023-03-08T01:50:11;97714.78;;;2.36;83.53
77410;BME280;66481;51.332;22.804;2023-03-08T01:54:22;97710.69;;;2.32;83.28
77410;BME280;66481;51.332;22.804;2023-03-08T01:58:25;97710.75;;;2.43;83.01
77410;BME280;66481;51.332;22.804;2023-03-08T02:02:31;97704.66;;;2.31;83.95
77410;BME280;66481;51.332;22.804;2023-03-08T02:06:35;97702.03;;;2.31;83.54
77410;BME280;66481;51.332;22.804;2023-03-08T02:10:37;97699.94;;;2.36;83.24
77410;BME280;66481;51.332;22.804;2023-03-08T02:14:42;97707.94;;;2.46;81.93
77410;BME280;66481;51.332;22.804;2023-03-08T02:23:06;97699.31;;;2.57;79.73
77410;BME280;66481;51.332;22.804;2023-03-08T02:27:14;97686.38;;;2.55;79.59
77410;BME280;66481;51.332;22.804;2023-03-08T02:31:17;97686.25;;;2.57;80.24
77410;BME280;66481;51.332;22.804;2023-03-08T02:35:18;97682.06;;;2.43;81.05
77410;BME280;66481;51.332;22.804;2023-03-08T02:39:19;97694.03;;;2.45;81.26
77410;BME280;66481;51.332;22.804;2023-03-08T02:43:20;97683.94;;;2.41;81.31
77410;BME280;66481;51.332;22.804;2023-03-08T02:47:21;97683.84;;;2.42;81.68
77410;BME280;66481;51.332;22.804;2023-03-08T02:51:22;97693.28;;;2.32;82.57
77410;BME280;66481;51.332;22.804;2023-03-08T02:55:23;97684.09;;;2.26;83.81
77410;BME280;66481;51.332;22.804;2023-03-08T02:59:24;97681.50;;;2.26;84.44
77410;BME280;66481;51.332;22.804;2023-03-08T03:03:26;97683.00;;;2.18;84.25
77410;BME280;66481;51.332;22.804;2023-03-08T03:07:27;97688.56;;;2.13;85.11
77410;BME280;66481;51.332;22.804;2023-03-08T03:11:31;97686.88;;;2.12;85.52
77410;BME280;66481;51.332;22.804;2023-03-08T03:15:35;97688.59;;;2.24;84.98
77410;BME280;66481;51.332;22.804;2023-03-08T03:19:37;97698.22;;;2.24;85.05
77410;BME280;66481;51.332;22.804;2023-03-08T03:23:39;97695.41;;;2.27;85.75
77410;BME280;66481;51.332;22.804;2023-03-08T03:27:40;97689.97;;;2.30;85.74
77410;BME280;66481;51.332;22.804;2023-03-08T03:31:41;97696.72;;;2.33;85.63
77410;BME280;66481;51.332;22.804;2023-03-08T03:35:42;97698.50;;;2.32;86.45
77410;BME280;66481;51.332;22.804;2023-03-08T03:39:43;97705.66;;;2.41;85.56
77410;BME280;66481;51.332;22.804;2023-03-08T03:43:45;97703.47;;;2.35;85.68
77410;BME280;66481;51.332;22.804;2023-03-08T03:47:46;97697.78;;;2.30;85.97
77410;BME280;66481;51.332;22.804;2023-03-08T03:51:47;97702.38;;;2.26;86.05
77410;BME280;66481;51.332;22.804;2023-03-08T03:55:49;97714.69;;;2.24;85.94
77410;BME280;66481;51.332;22.804;2023-03-08T03:59:50;97713.25;;;2.20;86.20
77410;BME280;66481;51.332;22.804;2023-03-08T04:03:51;97708.66;;;2.24;85.20
77410;BME280;66481;51.332;22.804;2023-03-08T04:07:53;97716.41;;;2.13;85.18
77410;BME280;66481;51.332;22.804;2023-03-08T04:11:53;97710.19;;;2.02;85.78
77410;BME280;66481;51.332;22.804;2023-03-08T04:15:54;97705.66;;;2.17;84.25
77410;BME280;66481;51.332;22.804;2023-03-08T04:19:55;97695.59;;;2.24;83.64
77410;BME280;66481;51.332;22.804;2023-03-08T04:23:57;97709.19;;;2.40;83.12
77410;BME280;66481;51.332;22.804;2023-03-08T04:27:59;97714.97;;;2.57;82.43
77410;BME280;66481;51.332;22.804;2023-03-08T04:32:00;97716.19;;;2.64;82.27
77410;BME280;66481;51.332;22.804;2023-03-08T04:36:01;97720.97;;;2.70;81.30
77410;BME280;66481;51.332;22.804;2023-03-08T04:40:02;97723.22;;;2.75;81.53
77410;BME280;66481;51.332;22.804;2023-03-08T04:44:07;97727.72;;;2.73;81.39
77410;BME280;66481;51.332;22.804;2023-03-08T04:48:08;97745.91;;;2.74;81.12
77410;BME280;66481;51.332;22.804;2023-03-08T04:52:08;97742.25;;;2.77;80.89
77410;BME280;66481;51.332;22.804;2023-03-08T04:56:11;97754.50;;;2.88;81.10
77410;BME280;66481;51.332;22.804;2023-03-08T05:00:13;97776.44;;;2.85;81.21
77410;BME280;66481;51.332;22.804;2023-03-08T05:04:14;97785.03;;;2.63;82.54
77410;BME280;66481;51.332;22.804;2023-03-08T05:08:17;97814.97;;;1.96;85.78
77410;BME280;66481;51.332;22.804;2023-03-08T05:12:19;97823.06;;;1.15;86.05
77410;BME280;66481;51.332;22.804;2023-03-08T05:16:21;97834.09;;;0.78;86.99
77410;BME280;66481;51.332;22.804;2023-03-08T05:20:22;97835.56;;;0.55;87.75
77410;BME280;66481;51.332;22.804;2023-03-08T05:24:23;97848.31;;;0.45;88.60
77410;BME280;66481;51.332;22.804;2023-03-08T05:28:26;97859.84;;;0.41;88.42
77410;BME280;66481;51.332;22.804;2023-03-08T05:32:27;97870.91;;;0.30;89.08
77410;BME280;66481;51.332;22.804;2023-03-08T05:36:29;97877.59;;;0.20;89.21
77410;BME280;66481;51.332;22.804;2023-03-08T05:40:30;97879.19;;;0.23;89.43
77410;BME280;66481;51.332;22.804;2023-03-08T05:44:31;97896.94;;;0.16;89.61
77410;BME280;66481;51.332;22.804;2023-03-08T05:48:33;97905.19;;;0.08;90.49
77410;BME280;66481;51.332;22.804;2023-03-08T05:52:35;97921.16;;;0.02;90.31
77410;BME280;66481;51.332;22.804;2023-03-08T05:56:36;97926.81;;;-0.06;90.70
77410;BME280;66481;51.332;22.804;2023-03-08T06:00:37;97949.94;;;-0.01;90.87
77410;BME280;66481;51.332;22.804;2023-03-08T06:04:39;97946.13;;;-0.10;91.46
77410;BME280;66481;51.332;22.804;2023-03-08T06:08:40;97956.22;;;-0.20;90.80
77410;BME280;66481;51.332;22.804;2023-03-08T06:12:41;97974.25;;;-0.16;91.04
77410;BME280;66481;51.332;22.804;2023-03-08T06:16:42;97969.88;;;-0.16;91.18
77410;BME280;66481;51.332;22.804;2023-03-08T06:20:43;97973.59;;;-0.20;91.10
77410;BME280;66481;51.332;22.804;2023-03-08T06:24:44;97979.44;;;-0.16;91.03
77410;BME280;66481;51.332;22.804;2023-03-08T06:28:49;97987.97;;;-0.14;90.54
77410;BME280;66481;51.332;22.804;2023-03-08T06:32:50;97985.78;;;-0.06;89.46
77410;BME280;66481;51.332;22.804;2023-03-08T06:36:51;97984.88;;;0.24;88.74
77410;BME280;66481;51.332;22.804;2023-03-08T06:40:52;97994.28;;;0.55;88.29
77410;BME280;66481;51.332;22.804;2023-03-08T06:44:53;97986.09;;;0.75;85.35
77410;BME280;66481;51.332;22.804;2023-03-08T06:48:54;97986.19;;;0.88;85.29
77410;BME280;66481;51.332;22.804;2023-03-08T06:52:58;97997.44;;;0.89;85.35
77410;BME280;66481;51.332;22.804;2023-03-08T06:56:59;98016.28;;;1.07;84.30
77410;BME280;66481;51.332;22.804;2023-03-08T07:01:00;98010.38;;;0.90;84.84
77410;BME280;66481;51.332;22.804;2023-03-08T07:05:04;98013.34;;;0.84;85.57
77410;BME280;66481;51.332;22.804;2023-03-08T07:09:05;98028.31;;;0.81;85.22
77410;BME280;66481;51.332;22.804;2023-03-08T07:13:06;98026.91;;;0.89;85.14
77410;BME280;66481;51.332;22.804;2023-03-08T07:17:07;98037.41;;;0.88;84.28
77410;BME280;66481;51.332;22.804;2023-03-08T07:21:08;98044.31;;;0.89;83.37
77410;BME280;66481;51.332;22.804;2023-03-08T07:25:15;98050.81;;;0.82;84.40
77410;BME280;66481;51.332;22.804;2023-03-08T07:29:17;98062.06;;;0.68;84.62
77410;BME280;66481;51.332;22.804;2023-03-08T07:33:19;98064.59;;;0.69;83.92
77410;BME280;66481;51.332;22.804;2023-03-08T07:37:21;98068.09;;;0.83;83.90
77410;BME280;66481;51.332;22.804;2023-03-08T07:41:23;98074.69;;;0.60;83.81
77410;BME280;66481;51.332;22.804;2023-03-08T07:45:24;98077.28;;;0.74;83.17
77410;BME280;66481;51.332;22.804;2023-03-08T07:49:25;98088.84;;;0.70;84.83
77410;BME280;66481;51.332;22.804;2023-03-08T07:53:26;98084.19;;;0.61;84.24
77410;BME280;66481;51.332;22.804;2023-03-08T07:57:27;98095.56;;;0.88;84.10
77410;BME280;66481;51.332;22.804;2023-03-08T08:01:28;98095.34;;;1.20;83.57
77410;BME280;66481;51.332;22.804;2023-03-08T08:05:29;98110.75;;;1.38;82.43
77410;BME280;66481;51.332;22.804;2023-03-08T08:09:30;98103.69;;;1.40;82.03
77410;BME280;66481;51.332;22.804;2023-03-08T08:13:32;98100.78;;;1.44;81.66
77410;BME280;66481;51.332;22.804;2023-03-08T08:17:33;98099.28;;;1.55;81.47
77410;BME280;66481;51.332;22.804;2023-03-08T08:21:34;98102.63;;;2.51;79.41
77410;BME280;66481;51.332;22.804;2023-03-08T08:25:37;98113.84;;;3.91;75.96
77410;BME280;66481;51.332;22.804;2023-03-08T08:29:38;98119.09;;;3.79;74.39
77410;BME280;66481;51.332;22.804;2023-03-08T08:33:39;98125.34;;;3.52;74.58
77410;BME280;66481;51.332;22.804;2023-03-08T08:37:40;98109.84;;;2.99;74.24
77410;BME280;66481;51.332;22.804;2023-03-08T08:41:41;98118.59;;;4.22;73.60
77410;BME280;66481;51.332;22.804;2023-03-08T08:45:51;98125.91;;;6.33;66.80
77410;BME280;66481;51.332;22.804;2023-03-08T08:49:52;98118.44;;;4.94;68.01
77410;BME280;66481;51.332;22.804;2023-03-08T08:53:54;98136.50;;;4.39;69.56
77410;BME280;66481;51.332;22.804;2023-03-08T08:57:55;98132.59;;;3.35;71.39
77410;BME280;66481;51.332;22.804;2023-03-08T09:01:56;98154.53;;;3.58;73.95
77410;BME280;66481;51.332;22.804;2023-03-08T09:05:57;98141.88;;;3.52;71.67
77410;BME280;66481;51.332;22.804;2023-03-08T09:09:58;98156.00;;;3.87;71.64
77410;BME280;66481;51.332;22.804;2023-03-08T09:14:00;98151.88;;;3.71;72.34
77410;BME280;66481;51.332;22.804;2023-03-08T09:18:03;98154.44;;;3.60;71.41
77410;BME280;66481;51.332;22.804;2023-03-08T09:22:06;98161.75;;;3.42;72.32
77410;BME280;66481;51.332;22.804;2023-03-08T09:26:07;98181.53;;;3.08;70.70
77410;BME280;66481;51.332;22.804;2023-03-08T09:30:11;98178.25;;;2.53;73.15
77410;BME280;66481;51.332;22.804;2023-03-08T09:34:13;98166.09;;;3.05;73.09
77410;BME280;66481;51.332;22.804;2023-03-08T09:38:15;98163.16;;;3.22;72.23
77410;BME280;66481;51.332;22.804;2023-03-08T09:42:25;98165.16;;;6.02;66.80
77410;BME280;66481;51.332;22.804;2023-03-08T09:46:30;98153.09;;;9.06;56.74
77410;BME280;66481;51.332;22.804;2023-03-08T09:54:37;98146.53;;;9.30;52.41
77410;BME280;66481;51.332;22.804;2023-03-08T09:58:51;98152.19;;;8.78;53.36
77410;BME280;66481;51.332;22.804;2023-03-08T10:11:26;98169.94;;;5.86;58.42
77410;BME280;66481;51.332;22.804;2023-03-08T10:15:31;98152.00;;;8.99;51.73
77410;BME280;66481;51.332;22.804;2023-03-08T10:19:38;98146.28;;;8.06;49.45
77410;BME280;66481;51.332;22.804;2023-03-08T10:23:43;98155.03;;;7.56;51.37
77410;BME280;66481;51.332;22.804;2023-03-08T10:27:47;98145.69;;;5.93;56.19
77410;BME280;66481;51.332;22.804;2023-03-08T10:31:51;98153.88;;;6.22;56.45
77410;BME280;66481;51.332;22.804;2023-03-08T10:40:16;98150.56;;;7.97;55.66
77410;BME280;66481;51.332;22.804;2023-03-08T10:44:38;98141.56;;;9.82;47.60
77410;BME280;66481;51.332;22.804;2023-03-08T10:48:43;98127.31;;;10.39;46.32
77410;BME280;66481;51.332;22.804;2023-03-08T10:52:45;98139.91;;;10.81;45.52
77410;BME280;66481;51.332;22.804;2023-03-08T10:56:52;98140.22;;;10.60;45.55
77410;BME280;66481;51.332;22.804;2023-03-08T11:00:56;98143.47;;;10.53;45.44
77410;BME280;66481;51.332;22.804;2023-03-08T11:04:58;98138.19;;;10.71;45.72
77410;BME280;66481;51.332;22.804;2023-03-08T11:09:02;98126.69;;;10.45;43.27
77410;BME280;66481;51.332;22.804;2023-03-08T11:13:22;98143.41;;;10.63;45.40
77410;BME280;66481;51.332;22.804;2023-03-08T11:17:35;98147.28;;;10.51;44.30
77410;BME280;66481;51.332;22.804;2023-03-08T11:26:38;98152.13;;;8.00;50.82
77410;BME280;66481;51.332;22.804;2023-03-08T11:35:06;98144.22;;;8.00;50.38
77410;BME280;66481;51.332;22.804;2023-03-08T11:56:45;98150.78;;;6.61;54.09
77410;BME280;66481;51.332;22.804;2023-03-08T12:00:49;98158.06;;;6.25;53.78
77410;BME280;66481;51.332;22.804;2023-03-08T12:05:21;98149.72;;;6.52;53.79
77410;BME280;66481;51.332;22.804;2023-03-08T12:09:58;98144.06;;;7.20;54.04
77410;BME280;66481;51.332;22.804;2023-03-08T12:14:15;98145.34;;;6.63;53.62
77410;BME280;66481;51.332;22.804;2023-03-08T12:18:26;98148.03;;;6.30;55.10
77410;BME280;66481;51.332;22.804;2023-03-08T12:27:13;98148.56;;;6.13;55.79
77410;BME280;66481;51.332;22.804;2023-03-08T12:31:27;98143.59;;;5.53;56.64
77410;BME280;66481;51.332;22.804;2023-03-08T12:35:31;98144.91;;;5.36;57.85
77410;BME280;66481;51.332;22.804;2023-03-08T12:39:34;98137.41;;;6.20;54.96
77410;BME280;66481;51.332;22.804;2023-03-08T12:43:36;98141.47;;;5.58;55.08
77410;BME280;66481;51.332;22.804;2023-03-08T12:47:38;98136.47;;;6.21;54.62
77410;BME280;66481;51.332;22.804;2023-03-08T12:51:40;98136.50;;;6.43;52.37
77410;BME280;66481;51.332;22.804;2023-03-08T12:55:42;98138.72;;;6.26;52.82
77410;BME280;66481;51.332;22.804;2023-03-08T12:59:43;98132.50;;;6.27;52.81
77410;BME280;66481;51.332;22.804;2023-03-08T13:03:44;98148.16;;;5.51;56.29
77410;BME280;66481;51.332;22.804;2023-03-08T13:16:36;98157.78;;;5.39;54.67
77410;BME280;66481;51.332;22.804;2023-03-08T13:28:45;98161.28;;;5.40;56.22
77410;BME280;66481;51.332;22.804;2023-03-08T13:32:47;98143.91;;;5.94;55.88
77410;BME280;66481;51.332;22.804;2023-03-08T13:36:49;98143.91;;;5.94;54.75
77410;BME280;66481;51.332;22.804;2023-03-08T13:40:52;98129.16;;;5.81;55.83
77410;BME280;66481;51.332;22.804;2023-03-08T13:45:15;98137.09;;;5.91;55.74
77410;BME280;66481;51.332;22.804;2023-03-08T13:49:24;98142.41;;;5.69;55.56
77410;BME280;66481;51.332;22.804;2023-03-08T13:53:28;98138.13;;;5.45;56.42
77410;BME280;66481;51.332;22.804;2023-03-08T13:57:35;98137.03;;;5.36;56.49
77410;BME280;66481;51.332;22.804;2023-03-08T14:01:45;98145.41;;;5.07;58.18
77410;BME280;66481;51.332;22.804;2023-03-08T14:05:47;98145.25;;;4.98;57.42
77410;BME280;66481;51.332;22.804;2023-03-08T14:09:48;98136.22;;;5.02;57.59
77410;BME280;66481;51.332;22.804;2023-03-08T14:13:52;98129.78;;;5.06;59.53
77410;BME280;66481;51.332;22.804;2023-03-08T14:17:53;98121.78;;;4.96;58.40
77410;BME280;66481;51.332;22.804;2023-03-08T14:21:59;98131.56;;;5.05;58.58
77410;BME280;66481;51.332;22.804;2023-03-08T14:26:02;98114.34;;;4.67;58.72
77410;BME280;66481;51.332;22.804;2023-03-08T14:30:15;98121.28;;;4.44;59.75
77410;BME280;66481;51.332;22.804;2023-03-08T14:34:20;98105.66;;;4.31;60.76
77410;BME280;66481;51.332;22.804;2023-03-08T14:38:25;98092.59;;;4.31;59.57
77410;BME280;66481;51.332;22.804;2023-03-08T14:42:39;98095.69;;;4.37;60.27
77410;BME280;66481;51.332;22.804;2023-03-08T14:46:41;98093.34;;;4.45;60.35
77410;BME280;66481;51.332;22.804;2023-03-08T14:51:05;98094.56;;;4.52;60.30
77410;BME280;66481;51.332;22.804;2023-03-08T14:55:35;98078.72;;;4.65;59.18
77410;BME280;66481;51.332;22.804;2023-03-08T14:59:39;98065.03;;;4.50;60.81
77410;BME280;66481;51.332;22.804;2023-03-08T15:03:41;98066.50;;;4.30;61.24
77410;BME280;66481;51.332;22.804;2023-03-08T15:07:43;98058.44;;;4.33;60.23
77410;BME280;66481;51.332;22.804;2023-03-08T15:11:46;98052.00;;;4.26;60.95
77410;BME280;66481;51.332;22.804;2023-03-08T15:15:49;98058.97;;;4.14;61.26
77410;BME280;66481;51.332;22.804;2023-03-08T15:19:50;98061.00;;;3.86;62.96
77410;BME280;66481;51.332;22.804;2023-03-08T15:23:53;98049.25;;;3.92;62.85
77410;BME280;66481;51.332;22.804;2023-03-08T15:27:54;98060.59;;;4.04;62.42
77410;BME280;66481;51.332;22.804;2023-03-08T15:31:56;98063.34;;;4.13;63.02
77410;BME280;66481;51.332;22.804;2023-03-08T15:35:57;98052.97;;;4.01;62.36
77410;BME280;66481;51.332;22.804;2023-03-08T15:39:59;98053.16;;;3.86;63.94
77410;BME280;66481;51.332;22.804;2023-03-08T15:44:00;98057.78;;;3.83;65.03
77410;BME280;66481;51.332;22.804;2023-03-08T15:48:03;98039.06;;;3.76;64.00
77410;BME280;66481;51.332;22.804;2023-03-08T15:52:05;98035.16;;;3.57;63.86
77410;BME280;66481;51.332;22.804;2023-03-08T15:56:06;98044.63;;;3.47;67.67
77410;BME280;66481;51.332;22.804;2023-03-08T16:00:11;98043.53;;;3.26;67.07
77410;BME280;66481;51.332;22.804;2023-03-08T16:04:12;98043.03;;;3.20;67.68
77410;BME280;66481;51.332;22.804;2023-03-08T16:08:13;98041.78;;;3.13;68.80
77410;BME280;66481;51.332;22.804;2023-03-08T16:12:15;98042.94;;;3.09;69.54
77410;BME280;66481;51.332;22.804;2023-03-08T16:16:16;98031.25;;;3.02;70.75
77410;BME280;66481;51.332;22.804;2023-03-08T16:20:18;98027.34;;;3.08;69.59
77410;BME280;66481;51.332;22.804;2023-03-08T16:24:20;98031.03;;;2.92;70.99
77410;BME280;66481;51.332;22.804;2023-03-08T16:28:22;98018.50;;;2.97;72.24
77410;BME280;66481;51.332;22.804;2023-03-08T16:32:23;98023.97;;;2.94;73.08
77410;BME280;66481;51.332;22.804;2023-03-08T16:36:24;98026.59;;;2.69;77.54
77410;BME280;66481;51.332;22.804;2023-03-08T16:40:25;98028.34;;;2.68;77.75
77410;BME280;66481;51.332;22.804;2023-03-08T16:44:30;98018.88;;;2.67;75.51
77410;BME280;66481;51.332;22.804;2023-03-08T16:48:32;98021.16;;;2.59;75.08
77410;BME280;66481;51.332;22.804;2023-03-08T16:52:33;98025.25;;;2.63;75.38
77410;BME280;66481;51.332;22.804;2023-03-08T16:56:35;98018.75;;;2.56;76.32
77410;BME280;66481;51.332;22.804;2023-03-08T17:00:37;98023.78;;;2.59;77.43
77410;BME280;66481;51.332;22.804;2023-03-08T17:04:38;98018.53;;;2.59;76.41
77410;BME280;66481;51.332;22.804;2023-03-08T17:08:40;98010.19;;;2.54;76.67
77410;BME280;66481;51.332;22.804;2023-03-08T17:12:43;98011.97;;;2.53;77.69
77410;BME280;66481;51.332;22.804;2023-03-08T17:16:45;98009.47;;;2.52;78.15
77410;BME280;66481;51.332;22.804;2023-03-08T17:20:46;98005.06;;;2.52;77.49
77410;BME280;66481;51.332;22.804;2023-03-08T17:24:47;97991.81;;;2.55;77.40
77410;BME280;66481;51.332;22.804;2023-03-08T17:34:04;97994.72;;;2.51;78.88
77410;BME280;66481;51.332;22.804;2023-03-08T17:38:05;97998.53;;;2.34;80.27
77410;BME280;66481;51.332;22.804;2023-03-08T17:42:07;98001.31;;;2.18;81.78
77410;BME280;66481;51.332;22.804;2023-03-08T17:46:22;98026.03;;;2.12;82.78
77410;BME280;66481;51.332;22.804;2023-03-08T17:50:24;98024.78;;;2.05;83.34
77410;BME280;66481;51.332;22.804;2023-03-08T17:54:25;98022.03;;;1.94;83.08
77410;BME280;66481;51.332;22.804;2023-03-08T17:58:28;98009.13;;;1.92;83.34
77410;BME280;66481;51.332;22.804;2023-03-08T18:02:31;98012.00;;;1.87;83.17
77410;BME280;66481;51.332;22.804;2023-03-08T18:06:40;98009.59;;;1.84;83.30
77410;BME280;66481;51.332;22.804;2023-03-08T18:10:41;98008.53;;;1.74;83.65
77410;BME280;66481;51.332;22.804;2023-03-08T18:14:43;98018.03;;;1.75;83.72
77410;BME280;66481;51.332;22.804;2023-03-08T18:18:46;98037.13;;;1.76;83.28
77410;BME280;66481;51.332;22.804;2023-03-08T18:22:49;98026.78;;;1.74;83.24
77410;BME280;66481;51.332;22.804;2023-03-08T18:26:51;98027.72;;;1.73;83.24
77410;BME280;66481;51.332;22.804;2023-03-08T18:30:53;98028.56;;;1.74;83.27
77410;BME280;66481;51.332;22.804;2023-03-08T18:34:54;98032.81;;;1.75;82.96
77410;BME280;66481;51.332;22.804;2023-03-08T18:38:55;98016.53;;;1.71;83.56
77410;BME280;66481;51.332;22.804;2023-03-08T18:42:56;98014.03;;;1.69;83.36
77410;BME280;66481;51.332;22.804;2023-03-08T18:46:58;98010.50;;;1.71;82.83
77410;BME280;66481;51.332;22.804;2023-03-08T18:50:59;97997.66;;;1.67;83.05
77410;BME280;66481;51.332;22.804;2023-03-08T18:55:01;97999.88;;;1.74;82.37
77410;BME280;66481;51.332;22.804;2023-03-08T18:59:04;97991.88;;;1.77;82.63
77410;BME280;66481;51.332;22.804;2023-03-08T19:03:06;97996.75;;;1.81;82.92
77410;BME280;66481;51.332;22.804;2023-03-08T19:07:08;97974.09;;;1.69;82.07
77410;BME280;66481;51.332;22.804;2023-03-08T19:11:15;97995.94;;;1.81;82.40
77410;BME280;66481;51.332;22.804;2023-03-08T19:15:17;97989.03;;;1.80;82.61
77410;BME280;66481;51.332;22.804;2023-03-08T19:19:19;97984.53;;;1.69;82.74
77410;BME280;66481;51.332;22.804;2023-03-08T19:23:21;97991.44;;;1.70;83.82
77410;BME280;66481;51.332;22.804;2023-03-08T19:27:23;97987.03;;;1.71;82.34
77410;BME280;66481;51.332;22.804;2023-03-08T19:31:25;97984.13;;;1.75;82.30
77410;BME280;66481;51.332;22.804;2023-03-08T19:35:28;97976.22;;;1.77;81.77
77410;BME280;66481;51.332;22.804;2023-03-08T19:39:31;97965.13;;;1.60;83.88
77410;BME280;66481;51.332;22.804;2023-03-08T19:43:34;97954.50;;;1.63;84.17
77410;BME280;66481;51.332;22.804;2023-03-08T19:47:40;97954.16;;;1.55;85.18
77410;BME280;66481;51.332;22.804;2023-03-08T19:51:45;97942.06;;;1.54;85.06
77410;BME280;66481;51.332;22.804;2023-03-08T19:55:48;97946.13;;;1.58;85.29
77410;BME280;66481;51.332;22.804;2023-03-08T19:59:51;97932.38;;;1.56;86.18
77410;BME280;66481;51.332;22.804;2023-03-08T20:03:55;97924.56;;;1.56;85.84
77410;BME280;66481;51.332;22.804;2023-03-08T20:08:01;97911.81;;;1.52;86.75
77410;BME280;66481;51.332;22.804;2023-03-08T20:12:04;97910.13;;;1.50;87.14
77410;BME280;66481;51.332;22.804;2023-03-08T20:16:06;97897.31;;;1.47;87.54
77410;BME280;66481;51.332;22.804;2023-03-08T20:20:09;97892.41;;;1.43;87.87
77410;BME280;66481;51.332;22.804;2023-03-08T20:24:12;97890.84;;;1.40;87.28
77410;BME280;66481;51.332;22.804;2023-03-08T20:28:16;97875.72;;;1.33;87.03
77410;BME280;66481;51.332;22.804;2023-03-08T20:32:18;97868.00;;;1.31;88.06
77410;BME280;66481;51.332;22.804;2023-03-08T20:36:20;97865.91;;;1.36;88.00
77410;BME280;66481;51.332;22.804;2023-03-08T20:40:22;97866.75;;;1.37;87.83
77410;BME280;66481;51.332;22.804;2023-03-08T20:44:24;97854.47;;;1.39;88.12
77410;BME280;66481;51.332;22.804;2023-03-08T20:48:26;97848.41;;;1.38;88.06
77410;BME280;66481;51.332;22.804;2023-03-08T20:52:27;97830.25;;;1.37;88.42
77410;BME280;66481;51.332;22.804;2023-03-08T20:56:29;97818.09;;;1.37;88.73
77410;BME280;66481;51.332;22.804;2023-03-08T21:00:32;97800.44;;;1.28;89.07
77410;BME280;66481;51.332;22.804;2023-03-08T21:04:36;97783.06;;;1.28;89.38
77410;BME280;66481;51.332;22.804;2023-03-08T21:08:41;97779.22;;;1.21;89.89
77410;BME280;66481;51.332;22.804;2023-03-08T21:12:43;97774.09;;;1.20;90.21
77410;BME280;66481;51.332;22.804;2023-03-08T21:16:48;97770.75;;;1.18;90.78
77410;BME280;66481;51.332;22.804;2023-03-08T21:20:50;97758.97;;;1.12;90.67
77410;BME280;66481;51.332;22.804;2023-03-08T21:24:52;97747.28;;;1.18;91.11
77410;BME280;66481;51.332;22.804;2023-03-08T21:28:56;97757.41;;;1.09;91.55
77410;BME280;66481;51.332;22.804;2023-03-08T21:32:58;97742.72;;;1.08;91.36
77410;BME280;66481;51.332;22.804;2023-03-08T21:36:59;97734.78;;;1.10;91.62
77410;BME280;66481;51.332;22.804;2023-03-08T21:41:01;97728.13;;;1.06;92.12
77410;BME280;66481;51.332;22.804;2023-03-08T21:45:03;97721.78;;;1.10;91.70
77410;BME280;66481;51.332;22.804;2023-03-08T21:49:05;97699.91;;;1.00;92.19
77410;BME280;66481;51.332;22.804;2023-03-08T21:53:07;97682.19;;;0.92;92.70
77410;BME280;66481;51.332;22.804;2023-03-08T21:57:08;97684.28;;;1.00;93.08
77410;BME280;66481;51.332;22.804;2023-03-08T22:01:23;97673.84;;;1.00;92.89
77410;BME280;66481;51.332;22.804;2023-03-08T22:05:25;97657.59;;;0.96;92.92
77410;BME280;66481;51.332;22.804;2023-03-08T22:09:26;97661.56;;;1.02;92.42
77410;BME280;66481;51.332;22.804;2023-03-08T22:13:28;97635.75;;;0.99;92.58
77410;BME280;66481;51.332;22.804;2023-03-08T22:17:29;97630.41;;;1.00;93.11
77410;BME280;66481;51.332;22.804;2023-03-08T22:21:30;97628.03;;;0.97;92.76
77410;BME280;66481;51.332;22.804;2023-03-08T22:25:31;97617.28;;;1.02;93.38
77410;BME280;66481;51.332;22.804;2023-03-08T22:29:34;97620.50;;;1.05;92.37
77410;BME280;66481;51.332;22.804;2023-03-08T22:33:34;97623.00;;;1.07;92.57
77410;BME280;66481;51.332;22.804;2023-03-08T22:37:36;97608.44;;;1.04;92.78
77410;BME280;66481;51.332;22.804;2023-03-08T22:41:37;97613.44;;;1.07;92.58